Time;durP1;ratioP1;P1;durP2;ratioP2;P2;SDS_P1;SDS_P2;PMS_P1;PMS_P2;Temp;Humidity;BMP_temperature;BMP_pressure;BME280_temperature;BME280_humidity;BME280_pressure;Samples;Min_cycle;Max_cycle;Signal;HPM_P1;HPM_P2
2022/12/31 00:01:17;;;;;;;13.00;8.73;;;;;;;;;;5014896;28;20068;-77
2022/12/31 00:03:43;;;;;;;10.80;7.97;;;;;;;;;;5015012;28;20033;-76
2022/12/31 00:06:29;;;;;;;9.93;8.55;;;;;;;;;;5016320;28;20026;-76
2022/12/31 00:08:56;;;;;;;17.45;10.13;;;;;;;;;;5016871;28;20058;-76
2022/12/31 00:11:23;;;;;;;9.60;8.23;;;;;;;;;;5015093;28;20069;-75
2022/12/31 00:13:49;;;;;;;13.20;8.65;;;;;;;;;;5026605;28;20521;-75
2022/12/31 00:16:17;;;;;;;8.88;7.63;;;;;;;;;;5012489;28;20075;-77
2022/12/31 00:18:47;;;;;;;12.00;8.07;;;;;;;;;;5014463;28;20049;-76
2022/12/31 00:21:13;;;;;;;9.20;7.97;;;;;;;;;;5014665;28;20029;-77
2022/12/31 00:23:39;;;;;;;10.55;7.55;;;;;;;;;;5016443;28;20517;-76
2022/12/31 00:26:07;;;;;;;12.57;8.05;;;;;;;;;;5014762;28;20498;-76
2022/12/31 00:28:33;;;;;;;13.60;8.20;;;;;;;;;;5018094;28;20395;-76
2022/12/31 00:31:10;;;;;;;9.63;6.97;;;;;;;;;;5013258;28;20061;-76
2022/12/31 00:33:36;;;;;;;11.23;6.85;;;;;;;;;;5013535;28;20034;-77
2022/12/31 00:36:05;;;;;;;11.18;7.50;;;;;;;;;;5012571;28;20475;-76
2022/12/31 00:38:31;;;;;;;10.38;6.85;;;;;;;;;;5019122;28;20048;-77
2022/12/31 00:40:57;;;;;;;12.82;7.75;;;;;;;;;;5014301;28;20065;-77
2022/12/31 00:43:23;;;;;;;11.13;7.25;;;;;;;;;;5012646;28;20045;-76
2022/12/31 00:45:49;;;;;;;11.77;7.70;;;;;;;;;;5012211;28;20033;-77
2022/12/31 00:48:15;;;;;;;9.50;7.18;;;;;;;;;;5012793;28;20041;-76
2022/12/31 00:50:41;;;;;;;11.85;7.75;;;;;;;;;;5014803;28;20034;-77
2022/12/31 00:53:07;;;;;;;11.30;8.63;;;;;;;;;;5013604;28;20108;-77
2022/12/31 00:55:33;;;;;;;11.93;7.90;;;;;;;;;;5013206;28;20030;-77
2022/12/31 00:57:59;;;;;;;10.30;6.60;;;;;;;;;;5014033;28;20102;-76
2022/12/31 01:00:25;;;;;;;11.15;7.22;;;;;;;;;;5012989;28;20026;-75
2022/12/31 01:02:51;;;;;;;11.95;7.30;;;;;;;;;;5012093;28;20382;-76
2022/12/31 01:05:17;;;;;;;12.65;8.48;;;;;;;;;;5013122;28;20553;-76
2022/12/31 01:07:42;;;;;;;12.32;8.02;;;;;;;;;;5017285;28;20022;-77
2022/12/31 01:10:09;;;;;;;9.75;6.68;;;;;;;;;;5017092;28;20475;-76
2022/12/31 01:12:35;;;;;;;11.73;6.90;;;;;;;;;;5017487;28;20028;-77
2022/12/31 01:15:01;;;;;;;10.35;6.68;;;;;;;;;;5018307;28;20097;-77
2022/12/31 01:17:27;;;;;;;12.15;6.80;;;;;;;;;;5017011;28;20026;-77
2022/12/31 01:19:53;;;;;;;11.38;6.60;;;;;;;;;;5016718;28;20026;-76
2022/12/31 01:22:19;;;;;;;12.63;8.63;;;;;;;;;;5016558;28;20026;-76
2022/12/31 01:24:45;;;;;;;11.25;6.90;;;;;;;;;;5016762;28;20022;-75
2022/12/31 01:27:11;;;;;;;10.82;6.95;;;;;;;;;;5015621;28;20026;-75
2022/12/31 01:29:37;;;;;;;12.77;6.85;;;;;;;;;;5015941;28;20502;-76
2022/12/31 01:32:03;;;;;;;8.98;5.88;;;;;;;;;;5017458;28;20030;-77
2022/12/31 01:34:28;;;;;;;12.90;6.60;;;;;;;;;;5017982;28;20385;-77
2022/12/31 01:36:54;;;;;;;11.45;6.13;;;;;;;;;;5016997;28;20045;-75
2022/12/31 01:39:20;;;;;;;8.52;6.07;;;;;;;;;;5016212;28;20430;-76
2022/12/31 01:41:47;;;;;;;11.05;6.38;;;;;;;;;;5016504;28;20102;-77
2022/12/31 01:44:13;;;;;;;9.35;6.22;;;;;;;;;;5016714;28;20033;-77
2022/12/31 01:46:41;;;;;;;9.25;5.75;;;;;;;;;;5017413;28;20026;-76
2022/12/31 01:49:12;;;;;;;14.80;6.63;;;;;;;;;;5016685;28;20440;-77
2022/12/31 01:51:38;;;;;;;9.20;6.30;;;;;;;;;;5015797;28;20060;-75
2022/12/31 01:54:06;;;;;;;10.98;6.13;;;;;;;;;;5015741;28;20054;-76
2022/12/31 01:56:34;;;;;;;9.27;6.30;;;;;;;;;;5015074;28;20030;-76
2022/12/31 01:59:03;;;;;;;13.55;6.85;;;;;;;;;;5014019;28;20064;-75
2022/12/31 02:01:30;;;;;;;10.20;5.70;;;;;;;;;;5013983;28;20029;-76
2022/12/31 02:03:57;;;;;;;11.18;6.05;;;;;;;;;;5015670;28;20080;-76
2022/12/31 02:06:30;;;;;;;11.88;6.13;;;;;;;;;;5015024;28;20110;-76
2022/12/31 02:08:57;;;;;;;7.50;5.70;;;;;;;;;;5015450;28;20034;-76
2022/12/31 02:11:26;;;;;;;13.13;5.93;;;;;;;;;;5014904;28;20073;-75
2022/12/31 02:13:53;;;;;;;9.07;6.10;;;;;;;;;;5015185;28;20025;-77
2022/12/31 02:16:23;;;;;;;8.45;6.20;;;;;;;;;;5014640;28;20546;-75
2022/12/31 02:18:55;;;;;;;14.20;6.20;;;;;;;;;;5014983;28;20041;-77
2022/12/31 02:21:30;;;;;;;10.10;6.07;;;;;;;;;;5016158;28;20024;-76
2022/12/31 02:23:56;;;;;;;11.10;6.05;;;;;;;;;;5015061;28;20036;-77
2022/12/31 02:26:34;;;;;;;11.63;6.18;;;;;;;;;;5014741;28;20387;-75
2022/12/31 02:29:07;;;;;;;10.77;6.50;;;;;;;;;;5013552;28;20389;-75
2022/12/31 02:31:36;;;;;;;10.18;5.90;;;;;;;;;;5015441;28;20022;-76
2022/12/31 02:34:14;;;;;;;10.02;5.80;;;;;;;;;;5015123;28;20026;-77
2022/12/31 02:36:42;;;;;;;9.52;5.82;;;;;;;;;;5014483;28;20034;-76
2022/12/31 02:39:09;;;;;;;9.10;6.38;;;;;;;;;;5014708;28;20026;-76
2022/12/31 02:41:51;;;;;;;7.82;6.20;;;;;;;;;;5015039;28;20026;-76
2022/12/31 02:44:24;;;;;;;13.77;6.43;;;;;;;;;;5014974;28;20030;-75
2022/12/31 02:47:08;;;;;;;13.68;6.88;;;;;;;;;;5014155;28;20077;-76
2022/12/31 02:49:34;;;;;;;9.15;6.13;;;;;;;;;;5014810;28;20033;-77
2022/12/31 02:52:14;;;;;;;10.52;6.50;;;;;;;;;;5015067;28;20406;-75
2022/12/31 02:54:48;;;;;;;12.13;6.90;;;;;;;;;;5014372;28;20014;-76
2022/12/31 02:57:18;;;;;;;11.60;6.75;;;;;;;;;;5013641;28;20430;-76
2022/12/31 03:02:35;;;;;;;9.32;6.55;;;;;;;;;;5014232;28;20041;-75
2022/12/31 03:05:02;;;;;;;12.13;7.40;;;;;;;;;;5015154;28;20096;-77
2022/12/31 03:07:30;;;;;;;11.15;6.43;;;;;;;;;;5015434;28;20482;-76
2022/12/31 03:09:56;;;;;;;14.70;6.25;;;;;;;;;;5015862;28;20022;-76
2022/12/31 03:15:18;;;;;;;7.80;6.07;;;;;;;;;;5014590;28;20040;-76
2022/12/31 03:17:58;;;;;;;8.45;6.28;;;;;;;;;;5013805;28;20525;-76
2022/12/31 03:23:18;;;;;;;9.02;6.45;;;;;;;;;;5024582;28;20061;-82
2022/12/31 03:25:44;;;;;;;9.30;5.95;;;;;;;;;;5024523;28;20026;-82
2022/12/31 03:28:13;;;;;;;8.73;5.88;;;;;;;;;;5021623;28;20025;-83
2022/12/31 03:30:40;;;;;;;7.47;5.53;;;;;;;;;;5021086;28;20037;-81
2022/12/31 03:33:08;;;;;;;7.18;5.03;;;;;;;;;;5025199;28;20407;-82
2022/12/31 03:35:35;;;;;;;6.90;4.93;;;;;;;;;;5026329;28;20022;-81
2022/12/31 03:38:01;;;;;;;9.23;4.68;;;;;;;;;;5030073;28;20042;-81
2022/12/31 03:40:27;;;;;;;8.63;4.60;;;;;;;;;;5034477;28;20045;-81
2022/12/31 03:42:54;;;;;;;8.32;5.68;;;;;;;;;;5038152;28;20010;-82
2022/12/31 03:45:22;;;;;;;9.40;4.60;;;;;;;;;;5038542;28;20054;-82
2022/12/31 03:47:48;;;;;;;9.98;4.32;;;;;;;;;;5038320;28;20006;-82
2022/12/31 03:50:15;;;;;;;4.60;4.00;;;;;;;;;;5037998;28;20030;-81
2022/12/31 03:52:41;;;;;;;7.90;4.45;;;;;;;;;;5025006;28;20089;-81
2022/12/31 03:55:08;;;;;;;7.38;4.30;;;;;;;;;;5024609;28;20034;-82
2022/12/31 03:57:34;;;;;;;9.95;4.95;;;;;;;;;;5023385;28;20513;-82
2022/12/31 04:00:00;;;;;;;10.20;4.88;;;;;;;;;;5022073;28;20083;-82
2022/12/31 04:02:26;;;;;;;7.50;4.22;;;;;;;;;;5022201;28;20040;-82
2022/12/31 04:04:52;;;;;;;7.93;4.00;;;;;;;;;;5019893;28;20048;-81
2022/12/31 04:07:21;;;;;;;9.52;4.18;;;;;;;;;;5027565;28;20022;-80
2022/12/31 04:09:47;;;;;;;6.80;4.75;;;;;;;;;;5030723;28;20053;-77
2022/12/31 04:12:13;;;;;;;7.85;4.72;;;;;;;;;;5025557;28;20068;-79
2022/12/31 04:14:39;;;;;;;5.82;4.45;;;;;;;;;;5028472;28;20029;-82
2022/12/31 04:17:05;;;;;;;7.35;4.22;;;;;;;;;;5025646;28;20041;-80
2022/12/31 04:19:31;;;;;;;7.10;5.00;;;;;;;;;;5031039;28;20034;-81
2022/12/31 04:21:57;;;;;;;8.30;4.78;;;;;;;;;;5038645;28;20022;-82
2022/12/31 04:24:24;;;;;;;7.68;5.00;;;;;;;;;;5030596;28;20180;-81
2022/12/31 04:26:50;;;;;;;7.07;5.05;;;;;;;;;;5020926;28;20111;-80
2022/12/31 04:29:16;;;;;;;6.40;4.80;;;;;;;;;;5026755;28;20026;-79
2022/12/31 04:31:42;;;;;;;9.30;5.30;;;;;;;;;;5031728;28;20022;-79
2022/12/31 04:34:08;;;;;;;7.90;5.57;;;;;;;;;;5025479;28;20475;-81
2022/12/31 04:36:34;;;;;;;9.38;5.53;;;;;;;;;;5031495;28;20032;-80
2022/12/31 04:39:00;;;;;;;6.75;4.93;;;;;;;;;;5035916;28;20029;-82
2022/12/31 04:41:26;;;;;;;9.63;4.93;;;;;;;;;;5031372;28;20030;-82
2022/12/31 04:43:53;;;;;;;8.13;5.38;;;;;;;;;;5035867;28;20034;-81
2022/12/31 04:46:20;;;;;;;6.30;5.03;;;;;;;;;;5035962;28;20021;-80
2022/12/31 04:48:46;;;;;;;5.47;4.90;;;;;;;;;;5021996;28;20026;-81
2022/12/31 04:51:12;;;;;;;8.02;4.78;;;;;;;;;;5021865;28;20040;-82
2022/12/31 04:53:38;;;;;;;7.68;4.28;;;;;;;;;;5035977;28;20030;-83
2022/12/31 04:56:04;;;;;;;8.48;4.03;;;;;;;;;;5029472;28;20038;-80
2022/12/31 04:58:31;;;;;;;7.50;4.15;;;;;;;;;;5021674;28;20030;-80
2022/12/31 05:00:57;;;;;;;5.45;3.80;;;;;;;;;;5021803;28;20026;-79
2022/12/31 05:03:24;;;;;;;4.97;3.17;;;;;;;;;;5019767;28;20026;-80
2022/12/31 05:05:50;;;;;;;7.45;3.30;;;;;;;;;;5021149;28;20061;-81
2022/12/31 05:08:17;;;;;;;5.65;3.17;;;;;;;;;;5021253;28;20026;-81
2022/12/31 05:10:44;;;;;;;5.43;3.20;;;;;;;;;;5019620;28;20034;-79
2022/12/31 05:13:10;;;;;;;6.18;2.75;;;;;;;;;;5024978;28;20049;-80
2022/12/31 05:15:36;;;;;;;4.47;3.00;;;;;;;;;;5018669;28;20021;-80
2022/12/31 05:18:03;;;;;;;3.20;2.80;;;;;;;;;;5018141;28;20340;-78
2022/12/31 05:20:29;;;;;;;5.00;3.50;;;;;;;;;;5020067;28;20072;-80
2022/12/31 05:22:55;;;;;;;4.30;3.05;;;;;;;;;;5021477;28;20033;-81
2022/12/31 05:25:22;;;;;;;3.55;2.78;;;;;;;;;;5029682;28;20022;-80
2022/12/31 05:27:48;;;;;;;4.68;2.92;;;;;;;;;;5031251;28;20022;-79
2022/12/31 05:30:14;;;;;;;7.03;3.38;;;;;;;;;;5029359;28;20097;-77
2022/12/31 05:32:40;;;;;;;8.70;3.20;;;;;;;;;;5029744;28;20037;-78
2022/12/31 05:35:07;;;;;;;7.72;2.80;;;;;;;;;;5027659;28;20237;-78
2022/12/31 05:37:33;;;;;;;3.97;2.50;;;;;;;;;;5024952;28;20065;-80
2022/12/31 05:39:59;;;;;;;4.90;2.40;;;;;;;;;;5023538;28;20022;-79
2022/12/31 05:42:25;;;;;;;6.28;2.90;;;;;;;;;;5028975;28;20029;-78
2022/12/31 05:44:52;;;;;;;3.78;2.42;;;;;;;;;;5033374;28;20037;-79
2022/12/31 05:47:18;;;;;;;5.20;2.50;;;;;;;;;;5033318;28;20034;-79
2022/12/31 05:49:44;;;;;;;3.63;2.22;;;;;;;;;;5034454;28;20021;-80
2022/12/31 05:52:10;;;;;;;4.18;2.40;;;;;;;;;;5032121;28;20034;-82
2022/12/31 05:54:36;;;;;;;6.07;2.63;;;;;;;;;;5030202;28;20025;-78
2022/12/31 05:57:02;;;;;;;5.78;2.60;;;;;;;;;;5029128;28;20050;-79
2022/12/31 05:59:29;;;;;;;8.48;2.88;;;;;;;;;;5035360;28;20033;-78
2022/12/31 06:01:55;;;;;;;6.63;2.33;;;;;;;;;;5019650;28;20368;-79
2022/12/31 06:04:21;;;;;;;6.20;1.98;;;;;;;;;;5020478;28;20033;-81
2022/12/31 06:06:47;;;;;;;3.30;2.47;;;;;;;;;;5029275;28;20018;-80
2022/12/31 06:09:14;;;;;;;5.93;2.10;;;;;;;;;;5015715;28;20094;-81
2022/12/31 06:11:40;;;;;;;5.25;2.13;;;;;;;;;;5025144;28;20022;-79
2022/12/31 06:14:06;;;;;;;6.25;2.30;;;;;;;;;;5030466;28;20057;-80
2022/12/31 06:16:32;;;;;;;4.03;1.88;;;;;;;;;;5018384;28;20025;-79
2022/12/31 06:18:58;;;;;;;6.80;1.98;;;;;;;;;;5018969;28;20506;-77
2022/12/31 06:21:24;;;;;;;3.70;2.00;;;;;;;;;;5019650;28;20510;-80
2022/12/31 06:23:50;;;;;;;5.90;1.60;;;;;;;;;;5027565;28;20034;-79
2022/12/31 06:26:17;;;;;;;3.33;1.70;;;;;;;;;;5034724;28;20029;-79
2022/12/31 06:28:43;;;;;;;6.70;1.95;;;;;;;;;;5033679;28;20041;-79
2022/12/31 06:31:11;;;;;;;11.88;6.80;;;;;;;;;;5032510;28;20042;-77
2022/12/31 06:33:37;;;;;;;2.58;1.58;;;;;;;;;;5031530;28;20048;-78
2022/12/31 06:36:04;;;;;;;3.78;1.60;;;;;;;;;;5029973;28;20030;-79
2022/12/31 06:38:31;;;;;;;3.63;1.70;;;;;;;;;;5031502;28;20093;-78
2022/12/31 06:40:57;;;;;;;1.98;1.30;;;;;;;;;;5032405;28;20033;-80
2022/12/31 06:43:23;;;;;;;1.98;1.15;;;;;;;;;;5027713;28;20033;-79
2022/12/31 06:45:49;;;;;;;4.53;1.40;;;;;;;;;;5026108;28;20080;-80
2022/12/31 06:48:15;;;;;;;7.38;2.25;;;;;;;;;;5025446;28;20026;-80
2022/12/31 06:50:41;;;;;;;2.83;1.73;;;;;;;;;;5026337;28;20018;-79
2022/12/31 06:53:08;;;;;;;3.95;1.73;;;;;;;;;;5032091;28;20021;-80
2022/12/31 06:55:34;;;;;;;3.42;1.17;;;;;;;;;;5034652;28;20090;-79
2022/12/31 06:58:00;;;;;;;1.80;1.10;;;;;;;;;;5027888;28;20030;-79
2022/12/31 07:00:26;;;;;;;4.82;0.90;;;;;;;;;;5025954;28;20026;-79
2022/12/31 07:02:59;;;;;;;1.38;0.85;;;;;;;;;;5027055;28;20025;-81
2022/12/31 07:05:44;;;;;;;4.10;1.00;;;;;;;;;;5023569;28;20033;-81
2022/12/31 07:08:10;;;;;;;;;;;;;;;;;;5017262;28;20109;-79
2022/12/31 07:10:43;;;;;;;3.55;0.98;;;;;;;;;;5023334;28;20398;-79
2022/12/31 07:13:15;;;;;;;1.58;1.00;;;;;;;;;;5025969;28;20104;-79
2022/12/31 07:16:01;;;;;;;2.17;1.15;;;;;;;;;;5031390;28;20029;-79
2022/12/31 07:18:26;;;;;;;;;;;;;;;;;;5022780;28;20040;-79
2022/12/31 07:20:53;;;;;;;1.92;1.20;;;;;;;;;;5021399;28;19909;-79
2022/12/31 07:23:19;;;;;;;3.97;0.90;;;;;;;;;;5020967;28;20498;-79
2022/12/31 07:25:51;;;;;;;1.77;0.80;;;;;;;;;;5022460;28;20037;-79
2022/12/31 07:28:26;;;;;;;1.40;0.98;;;;;;;;;;5021483;28;20056;-80
2022/12/31 07:30:59;;;;;;;2.45;0.85;;;;;;;;;;5023893;28;20026;-79
2022/12/31 07:33:28;;;;;;;1.48;0.88;;;;;;;;;;5026916;28;20399;-78
2022/12/31 07:35:57;;;;;;;2.63;1.17;;;;;;;;;;5028159;28;20038;-80
2022/12/31 07:38:56;;;;;;;1.50;0.70;;;;;;;;;;5031160;28;20040;-78
2022/12/31 07:41:46;;;;;;;3.92;0.90;;;;;;;;;;4996087;28;20034;-81
2022/12/31 07:44:18;;;;;;;3.17;1.05;;;;;;;;;;5021771;28;20077;-81
2022/12/31 07:46:55;;;;;;;2.33;1.02;;;;;;;;;;5024691;28;20057;-79
2022/12/31 07:49:22;;;;;;;2.53;0.88;;;;;;;;;;5028903;28;20092;-78
2022/12/31 07:51:48;;;;;;;2.17;1.00;;;;;;;;;;5030745;28;20069;-80
2022/12/31 07:54:14;;;;;;;1.70;0.80;;;;;;;;;;5035437;28;20018;-79
2022/12/31 07:56:41;;;;;;;1.58;0.93;;;;;;;;;;5036275;28;20049;-81
2022/12/31 07:59:25;;;;;;;6.63;1.10;;;;;;;;;;5035954;28;20094;-77
2022/12/31 08:02:12;;;;;;;8.85;1.50;;;;;;;;;;5026343;28;20118;-81
2022/12/31 08:04:57;;;;;;;3.75;1.10;;;;;;;;;;5020700;28;20030;-78
2022/12/31 08:07:29;;;;;;;2.00;0.95;;;;;;;;;;5011178;28;20093;-79
2022/12/31 08:10:01;;;;;;;1.80;0.90;;;;;;;;;;5011250;28;20034;-80
2022/12/31 08:12:30;;;;;;;2.42;0.95;;;;;;;;;;5018854;28;20490;-80
2022/12/31 08:14:56;;;;;;;1.35;0.70;;;;;;;;;;5012528;28;20045;-80
2022/12/31 08:17:22;;;;;;;2.22;0.80;;;;;;;;;;5016307;28;20030;-79
2022/12/31 08:19:48;;;;;;;3.65;0.70;;;;;;;;;;5022232;28;20029;-78
2022/12/31 08:22:17;;;;;;;2.08;0.90;;;;;;;;;;5030123;28;20085;-79
2022/12/31 08:25:02;;;;;;;2.40;1.10;;;;;;;;;;5032107;28;20019;-79
2022/12/31 08:27:37;;;;;;;2.92;0.93;;;;;;;;;;5017767;28;20026;-79
2022/12/31 08:30:06;;;;;;;4.72;1.23;;;;;;;;;;5024702;28;20064;-80
2022/12/31 08:32:38;;;;;;;1.92;1.20;;;;;;;;;;5023130;28;20034;-78
2022/12/31 08:35:18;;;;;;;2.78;1.00;;;;;;;;;;5045536;28;20114;-79
2022/12/31 08:37:49;;;;;;;2.90;1.23;;;;;;;;;;5039399;28;20030;-79
2022/12/31 08:40:21;;;;;;;3.97;1.23;;;;;;;;;;5035592;28;20026;-81
2022/12/31 08:43:06;;;;;;;2.45;0.98;;;;;;;;;;5019174;28;20022;-80
2022/12/31 08:45:36;;;;;;;2.72;1.20;;;;;;;;;;5019270;28;20022;-80
2022/12/31 08:48:05;;;;;;;1.35;1.00;;;;;;;;;;5021299;28;20021;-79
2022/12/31 08:50:31;;;;;;;3.08;1.23;;;;;;;;;;5019993;28;20026;-81
2022/12/31 08:52:57;;;;;;;3.45;1.40;;;;;;;;;;5022201;28;20033;-80
2022/12/31 08:55:23;;;;;;;3.80;1.30;;;;;;;;;;5022333;28;20030;-80
2022/12/31 08:57:55;;;;;;;1.60;1.00;;;;;;;;;;5023280;28;20033;-83
2022/12/31 09:00:21;;;;;;;2.80;1.10;;;;;;;;;;5023851;28;20049;-81
2022/12/31 09:03:05;;;;;;;2.72;1.20;;;;;;;;;;5023108;28;20090;-81
2022/12/31 09:05:34;;;;;;;3.03;1.42;;;;;;;;;;5020919;28;20060;-80
2022/12/31 09:08:19;;;;;;;5.13;2.38;;;;;;;;;;5019268;28;20026;-81
2022/12/31 09:10:53;;;;;;;3.30;1.10;;;;;;;;;;5021315;28;20028;-80
2022/12/31 09:13:19;;;;;;;4.05;1.30;;;;;;;;;;5024033;28;20054;-81
2022/12/31 09:15:55;;;;;;;3.15;1.50;;;;;;;;;;5016294;28;20030;-79
2022/12/31 09:18:21;;;;;;;5.95;2.45;;;;;;;;;;5023692;28;20018;-78
2022/12/31 09:20:47;;;;;;;2.55;1.45;;;;;;;;;;5082367;23;20150;-76
2022/12/31 09:23:13;;;;;;;2.97;1.80;;;;;;;;;;5073613;28;20435;-76
2022/12/31 09:26:02;;;;;;;5.72;2.42;;;;;;;;;;5070206;28;20025;-77
2022/12/31 09:28:34;;;;;;;3.65;1.15;;;;;;;;;;5068706;28;20048;-73
2022/12/31 09:31:05;;;;;;;1.50;1.00;;;;;;;;;;5074870;28;20032;-76
2022/12/31 09:33:31;;;;;;;2.08;1.17;;;;;;;;;;5075651;28;20031;-76
2022/12/31 09:36:00;;;;;;;1.77;1.15;;;;;;;;;;5075307;28;20107;-76
2022/12/31 09:38:26;;;;;;;3.63;1.40;;;;;;;;;;5076039;28;20074;-75
2022/12/31 09:40:58;;;;;;;8.00;2.75;;;;;;;;;;5080672;28;20025;-75
2022/12/31 09:43:43;;;;;;;5.63;1.58;;;;;;;;;;5075996;28;20032;-75
2022/12/31 09:46:21;;;;;;;2.30;1.40;;;;;;;;;;5070870;28;20022;-76
2022/12/31 09:48:49;;;;;;;1.63;1.20;;;;;;;;;;5073381;28;20044;-76
2022/12/31 09:51:19;;;;;;;2.05;1.38;;;;;;;;;;5068277;28;20033;-75
2022/12/31 09:54:11;;;;;;;2.80;1.67;;;;;;;;;;5065285;28;20648;-75
2022/12/31 09:57:00;;;;;;;4.75;2.47;;;;;;;;;;5054065;28;20045;-77
2022/12/31 09:59:34;;;;;;;4.20;2.60;;;;;;;;;;5082149;28;20040;-74
2022/12/31 10:02:00;;;;;;;5.15;2.90;;;;;;;;;;5086302;28;20039;-76
2022/12/31 10:04:33;;;;;;;8.27;4.75;;;;;;;;;;5091296;28;20028;-75
2022/12/31 10:07:02;;;;;;;30.15;17.42;;;;;;;;;;5083976;28;20020;-75
2022/12/31 10:09:52;;;;;;;4.53;3.22;;;;;;;;;;5095654;28;20024;-77
2022/12/31 10:12:37;;;;;;;27.40;15.98;;;;;;;;;;5095158;28;20019;-77
2022/12/31 10:15:22;;;;;;;3.22;2.88;;;;;;;;;;5080242;28;20036;-74
2022/12/31 10:17:54;;;;;;;5.53;2.92;;;;;;;;;;5074547;28;20374;-77
2022/12/31 10:20:38;;;;;;;12.00;5.70;;;;;;;;;;5073935;28;20044;-77
2022/12/31 10:23:23;;;;;;;3.45;2.45;;;;;;;;;;5074520;28;20025;-76
2022/12/31 10:26:09;;;;;;;3.00;2.50;;;;;;;;;;5074230;28;20028;-75
2022/12/31 10:28:55;;;;;;;4.32;2.92;;;;;;;;;;5075089;28;20036;-75
2022/12/31 10:31:37;;;;;;;3.25;2.25;;;;;;;;;;5072724;28;20029;-77
2022/12/31 10:34:09;;;;;;;5.50;2.53;;;;;;;;;;5074505;28;20033;-76
2022/12/31 10:36:38;;;;;;;5.28;2.28;;;;;;;;;;5073996;28;20543;-76
2022/12/31 10:39:16;;;;;;;2.72;2.17;;;;;;;;;;5081970;28;20032;-75
2022/12/31 10:41:42;;;;;;;2.80;1.98;;;;;;;;;;5075330;28;20021;-75
2022/12/31 10:44:25;;;;;;;2.33;1.70;;;;;;;;;;5072874;28;20029;-76
2022/12/31 10:46:58;;;;;;;2.80;1.50;;;;;;;;;;5073104;28;20050;-76
2022/12/31 10:49:51;;;;;;;2.60;1.45;;;;;;;;;;5077614;28;20032;-78
2022/12/31 10:52:23;;;;;;;2.92;1.75;;;;;;;;;;5073644;28;20048;-77
2022/12/31 10:55:08;;;;;;;1.70;1.20;;;;;;;;;;5074303;28;20020;-77
2022/12/31 10:57:52;;;;;;;2.35;1.55;;;;;;;;;;5073792;28;20055;-77
2022/12/31 11:00:21;;;;;;;1.50;1.20;;;;;;;;;;5073742;28;20033;-76
2022/12/31 11:03:06;;;;;;;20.73;11.35;;;;;;;;;;5073841;28;20040;-78
2022/12/31 11:05:51;;;;;;;3.50;2.03;;;;;;;;;;5073859;28;20028;-76
2022/12/31 11:08:36;;;;;;;3.38;2.15;;;;;;;;;;5077014;28;20443;-78
2022/12/31 11:11:11;;;;;;;4.38;2.63;;;;;;;;;;5073659;28;20054;-78
2022/12/31 11:13:56;;;;;;;7.53;2.97;;;;;;;;;;5073669;28;20351;-77
2022/12/31 11:16:41;;;;;;;4.43;2.20;;;;;;;;;;5072387;28;20111;-77
2022/12/31 11:19:26;;;;;;;2.42;2.00;;;;;;;;;;5073090;28;20044;-76
2022/12/31 11:22:10;;;;;;;2.80;1.63;;;;;;;;;;5073758;28;20571;-75
2022/12/31 11:24:46;;;;;;;2.53;1.65;;;;;;;;;;5075418;28;20016;-75
2022/12/31 11:27:30;;;;;;;3.22;1.67;;;;;;;;;;5073835;28;20099;-76
2022/12/31 11:29:59;;;;;;;1.95;1.75;;;;;;;;;;5075916;28;20036;-76
2022/12/31 11:32:52;;;;;;;2.67;2.20;;;;;;;;;;5074481;28;20116;-76
2022/12/31 11:35:21;;;;;;;2.47;1.88;;;;;;;;;;5073352;28;20542;-77
2022/12/31 11:37:47;;;;;;;3.20;1.60;;;;;;;;;;5072710;28;20033;-76
2022/12/31 11:40:32;;;;;;;2.33;1.73;;;;;;;;;;5072871;28;20035;-76
2022/12/31 11:43:00;;;;;;;2.20;2.00;;;;;;;;;;5073157;28;20033;-77
2022/12/31 11:45:26;;;;;;;2.97;2.08;;;;;;;;;;5072122;28;20385;-77
2022/12/31 11:48:12;;;;;;;2.35;1.73;;;;;;;;;;5073849;28;20043;-77
2022/12/31 11:50:47;;;;;;;2.40;1.60;;;;;;;;;;5073573;28;20050;-75
2022/12/31 11:53:24;;;;;;;2.10;1.75;;;;;;;;;;5075582;28;20025;-76
2022/12/31 11:55:56;;;;;;;3.95;1.52;;;;;;;;;;5073725;28;20016;-77
2022/12/31 11:58:27;;;;;;;2.47;1.70;;;;;;;;;;5075561;28;20035;-76
2022/12/31 12:01:03;;;;;;;1.45;1.08;;;;;;;;;;5077101;28;20020;-77
2022/12/31 12:03:29;;;;;;;0.80;0.70;;;;;;;;;;5076988;28;20648;-76
2022/12/31 12:05:56;;;;;;;2.00;1.30;;;;;;;;;;5074065;28;20541;-76
2022/12/31 12:08:22;;;;;;;2.85;1.17;;;;;;;;;;5074270;28;20098;-76
2022/12/31 12:10:50;;;;;;;3.60;1.20;;;;;;;;;;5073689;28;20592;-76
2022/12/31 12:13:16;;;;;;;3.45;1.20;;;;;;;;;;5074038;28;20028;-75
2022/12/31 12:15:50;;;;;;;2.50;1.13;;;;;;;;;;5070504;28;20020;-75
2022/12/31 12:18:25;;;;;;;2.57;1.17;;;;;;;;;;5070301;28;20046;-77
2022/12/31 12:20:51;;;;;;;1.60;1.00;;;;;;;;;;5071314;28;20116;-78
2022/12/31 12:23:23;;;;;;;1.98;0.80;;;;;;;;;;5072018;28;20036;-76
2022/12/31 12:25:49;;;;;;;1.85;0.93;;;;;;;;;;5070107;28;20020;-79
2022/12/31 12:28:19;;;;;;;2.45;0.90;;;;;;;;;;5070802;28;20036;-74
2022/12/31 12:30:52;;;;;;;1.75;0.80;;;;;;;;;;5071469;28;20040;-74
2022/12/31 12:33:19;;;;;;;1.58;0.98;;;;;;;;;;5071937;28;20028;-75
2022/12/31 12:35:46;;;;;;;5.30;1.55;;;;;;;;;;5070219;28;20501;-75
2022/12/31 12:38:14;;;;;;;5.20;1.85;;;;;;;;;;5078754;28;20028;-74
2022/12/31 12:40:40;;;;;;;3.28;1.25;;;;;;;;;;5085638;28;20080;-72
2022/12/31 12:43:20;;;;;;;1.00;0.85;;;;;;;;;;5078901;28;20078;-74
2022/12/31 12:45:46;;;;;;;1.83;1.30;;;;;;;;;;5077692;28;20023;-74
2022/12/31 12:48:17;;;;;;;1.90;1.10;;;;;;;;;;5071760;28;20027;-74
2022/12/31 12:50:45;;;;;;;2.85;1.48;;;;;;;;;;5069999;28;20481;-74
2022/12/31 12:53:19;;;;;;;2.95;0.90;;;;;;;;;;5070085;28;20022;-75
2022/12/31 12:55:45;;;;;;;6.63;3.42;;;;;;;;;;5071478;28;20099;-74
2022/12/31 12:58:19;;;;;;;3.22;1.20;;;;;;;;;;5050174;28;20112;-74
2022/12/31 13:00:45;;;;;;;;;;;;;;;;;;5050941;28;20048;-75
2022/12/31 13:03:14;;;;;;;2.47;0.90;;;;;;;;;;5049055;28;20257;-75
2022/12/31 13:05:52;;;;;;;2.80;1.80;;;;;;;;;;5046803;28;20509;-76
2022/12/31 13:08:42;;;;;;;6.38;1.60;;;;;;;;;;5044141;28;20061;-78
2022/12/31 13:11:16;;;;;;;3.78;1.30;;;;;;;;;;5040550;28;20048;-76
2022/12/31 13:13:51;;;;;;;3.75;1.42;;;;;;;;;;5053604;28;20025;-74
2022/12/31 13:16:17;;;;;;;;;;;;;;;;;;5051908;28;20505;-77
2022/12/31 13:18:49;;;;;;;3.65;1.40;;;;;;;;;;5052041;28;19971;-77
2022/12/31 13:21:15;;;;;;;2.25;1.33;;;;;;;;;;5050903;28;20063;-77
2022/12/31 13:23:49;;;;;;;3.10;1.25;;;;;;;;;;5044543;28;20021;-77
2022/12/31 13:26:32;;;;;;;3.13;1.30;;;;;;;;;;5050048;28;20025;-76
2022/12/31 13:28:58;;;;;;;2.65;1.05;;;;;;;;;;5048748;28;20021;-76
2022/12/31 13:31:31;;;;;;;1.60;1.15;;;;;;;;;;5051951;28;20029;-76
2022/12/31 13:34:18;;;;;;;2.28;1.42;;;;;;;;;;5060142;28;20529;-76
2022/12/31 13:36:45;;;;;;;2.25;1.38;;;;;;;;;;5054892;28;20094;-77
2022/12/31 13:39:20;;;;;;;3.63;1.75;;;;;;;;;;5052518;28;20025;-77
2022/12/31 13:41:46;;;;;;;;;;;;;;;;;;5057345;28;20078;-76
2022/12/31 13:44:41;;;;;;;3.33;1.50;;;;;;;;;;5048298;28;19912;-76
2022/12/31 13:47:07;;;;;;;;;;;;;;;;;;5026165;28;20037;-76
2022/12/31 13:49:33;;;;;;;2.10;1.30;;;;;;;;;;5049027;28;20012;-75
2022/12/31 13:52:09;;;;;;;2.47;1.45;;;;;;;;;;5048055;28;20063;-76
2022/12/31 13:54:49;;;;;;;2.17;1.00;;;;;;;;;;5044833;28;20041;-75
2022/12/31 13:57:19;;;;;;;2.65;1.30;;;;;;;;;;5049058;28;20029;-76
2022/12/31 13:59:49;;;;;;;2.33;1.35;;;;;;;;;;5045257;28;20478;-76
2022/12/31 14:02:24;;;;;;;2.70;1.60;;;;;;;;;;5049500;28;20029;-76
2022/12/31 14:04:55;;;;;;;2.55;1.70;;;;;;;;;;5051408;28;20016;-76
2022/12/31 14:07:23;;;;;;;2.38;1.20;;;;;;;;;;5050342;28;20108;-76
2022/12/31 14:09:49;;;;;;;8.63;5.10;;;;;;;;;;5050116;28;20021;-76
2022/12/31 14:12:39;;;;;;;2.17;1.42;;;;;;;;;;5046563;28;20037;-76
2022/12/31 14:15:25;;;;;;;3.88;2.20;;;;;;;;;;5047946;28;20040;-75
2022/12/31 14:18:05;;;;;;;8.85;2.60;;;;;;;;;;5050235;28;20028;-75
2022/12/31 14:20:43;;;;;;;3.25;1.90;;;;;;;;;;5051937;28;20037;-76
2022/12/31 14:23:22;;;;;;;6.10;2.38;;;;;;;;;;5052476;28;20029;-76
2022/12/31 14:25:54;;;;;;;4.85;1.67;;;;;;;;;;5047141;28;20032;-76
2022/12/31 14:28:33;;;;;;;7.85;3.00;;;;;;;;;;5055344;28;20037;-77
2022/12/31 14:31:04;;;;;;;5.07;3.55;;;;;;;;;;5049392;28;20032;-78
2022/12/31 14:33:39;;;;;;;15.30;12.18;;;;;;;;;;5036632;28;20095;-76
2022/12/31 14:36:23;;;;;;;41.25;34.50;;;;;;;;;;5053441;28;20033;-77
2022/12/31 14:39:08;;;;;;;6.93;3.33;;;;;;;;;;5048779;28;20033;-76
2022/12/31 14:41:59;;;;;;;11.13;4.45;;;;;;;;;;5049813;28;20017;-76
2022/12/31 14:44:34;;;;;;;9.20;4.35;;;;;;;;;;5053446;28;20017;-75
2022/12/31 14:47:06;;;;;;;7.82;3.60;;;;;;;;;;5047371;28;20413;-77
2022/12/31 14:49:51;;;;;;;5.22;3.20;;;;;;;;;;5053255;28;20069;-76
2022/12/31 14:52:20;;;;;;;19.73;12.00;;;;;;;;;;5050648;28;20044;-76
2022/12/31 14:54:56;;;;;;;11.88;3.35;;;;;;;;;;5048937;28;20025;-76
2022/12/31 14:57:24;;;;;;;11.48;5.63;;;;;;;;;;5052348;28;20032;-76
2022/12/31 14:59:57;;;;;;;12.15;5.07;;;;;;;;;;5052862;28;20017;-76
2022/12/31 15:02:33;;;;;;;11.73;5.28;;;;;;;;;;5050017;28;20029;-77
2022/12/31 15:05:03;;;;;;;12.82;5.55;;;;;;;;;;5047205;28;20021;-76
2022/12/31 15:07:48;;;;;;;12.30;4.68;;;;;;;;;;5052882;28;20056;-77
2022/12/31 15:10:19;;;;;;;6.55;3.40;;;;;;;;;;5050786;28;20029;-76
2022/12/31 15:13:21;;;;;;;11.18;4.35;;;;;;;;;;5046480;28;20112;-76